createdAt,value
2023-01-29T00:02:03.679Z,95.40
2023-01-29T00:04:33.421Z,95.70
2023-01-29T00:07:01.468Z,95.80
2023-01-29T00:09:29.637Z,94.90
2023-01-29T00:11:57.657Z,94.70
2023-01-29T00:14:26.431Z,95.00
2023-01-29T00:16:54.795Z,95.50
2023-01-29T00:19:23.308Z,96.20
2023-01-29T00:21:52.640Z,96.20
2023-01-29T00:24:22.720Z,95.80
2023-01-29T00:26:51.047Z,95.70
2023-01-29T00:29:19.647Z,95.70
2023-01-29T00:31:48.485Z,95.40
2023-01-29T00:34:16.552Z,94.70
2023-01-29T00:36:45.668Z,94.80
2023-01-29T00:39:17.794Z,95.20
2023-01-29T00:42:03.114Z,95.80
2023-01-29T00:44:48.938Z,95.70
2023-01-29T00:47:33.498Z,95.40
2023-01-29T00:50:02.221Z,94.80
2023-01-29T00:52:30.939Z,95.20
2023-01-29T00:55:01.680Z,95.60
2023-01-29T00:57:31.640Z,95.30
2023-01-29T00:59:59.725Z,95.30
2023-01-29T01:02:45.454Z,95.20
2023-01-29T01:05:18.261Z,95.20
2023-01-29T01:07:47.569Z,95.00
2023-01-29T01:10:22.058Z,95.10
2023-01-29T01:12:53.545Z,95.40
2023-01-29T01:15:22.010Z,96.10
2023-01-29T01:17:53.760Z,96.40
2023-01-29T01:20:22.239Z,96.30
2023-01-29T01:22:50.345Z,96.40
2023-01-29T01:25:19.849Z,95.70
2023-01-29T01:27:47.893Z,95.80
2023-01-29T01:30:17.658Z,95.80
2023-01-29T01:32:46.026Z,95.50
2023-01-29T01:35:14.834Z,95.50
2023-01-29T01:37:43.043Z,95.60
2023-01-29T01:40:18.599Z,95.60
2023-01-29T01:42:50.227Z,95.60
2023-01-29T01:45:25.812Z,95.70
2023-01-29T01:47:58.414Z,96.30
2023-01-29T01:50:32.490Z,96.40
2023-01-29T01:53:04.793Z,96.40
2023-01-29T01:55:35.046Z,96.40
2023-01-29T01:58:10.535Z,96.30
2023-01-29T02:00:40.796Z,96.40
2023-01-29T02:03:28.569Z,96.20
2023-01-29T02:06:18.023Z,96.00
2023-01-29T02:09:11.805Z,95.90
2023-01-29T02:11:40.316Z,95.80
2023-01-29T02:14:09.914Z,95.80
2023-01-29T02:16:38.272Z,95.30
2023-01-29T02:19:12.361Z,95.10
2023-01-29T02:22:12.635Z,95.20
2023-01-29T02:25:09.814Z,95.10
2023-01-29T02:28:15.321Z,95.80
2023-01-29T02:30:50.724Z,96.10
2023-01-29T02:33:27.079Z,95.90
2023-01-29T02:36:00.577Z,96.10
2023-01-29T02:38:37.503Z,96.30
2023-01-29T02:41:11.626Z,95.70
2023-01-29T02:43:47.497Z,95.30
2023-01-29T02:46:19.938Z,95.10
2023-01-29T02:48:56.928Z,95.40
2023-01-29T02:51:29.985Z,96.00
2023-01-29T02:54:03.558Z,96.00
2023-01-29T02:56:38.482Z,95.80
2023-01-29T02:59:11.502Z,95.30
2023-01-29T03:01:45.087Z,95.10
2023-01-29T03:04:19.556Z,95.00
2023-01-29T03:06:53.276Z,95.10
2023-01-29T03:09:26.727Z,95.10
2023-01-29T03:11:59.209Z,95.00
2023-01-29T03:14:59.894Z,95.00
2023-01-29T03:17:36.564Z,95.10
2023-01-29T03:20:08.076Z,94.80
2023-01-29T03:22:38.036Z,94.90
2023-01-29T03:25:24.453Z,94.90
2023-01-29T03:28:13.274Z,95.30
2023-01-29T03:31:03.944Z,95.50
2023-01-29T03:33:40.254Z,95.60
2023-01-29T03:36:11.791Z,95.40
2023-01-29T03:38:40.103Z,95.30
2023-01-29T03:41:14.864Z,95.10
2023-01-29T03:43:52.071Z,95.80
2023-01-29T03:46:29.298Z,96.20
2023-01-29T03:49:02.020Z,96.40
2023-01-29T03:51:35.253Z,96.40
2023-01-29T03:54:11.185Z,96.40
2023-01-29T03:56:49.171Z,96.60
2023-01-29T03:59:24.509Z,96.50
2023-01-29T04:01:58.086Z,96.60
2023-01-29T04:04:31.070Z,96.60
2023-01-29T04:07:05.020Z,96.40
2023-01-29T04:09:35.427Z,96.30
2023-01-29T04:12:09.216Z,96.20
2023-01-29T04:14:38.793Z,95.80
2023-01-29T04:17:12.345Z,95.70
2023-01-29T04:19:41.095Z,95.60
2023-01-29T04:22:14.262Z,96.00
2023-01-29T04:24:43.377Z,95.90
2023-01-29T04:27:27.445Z,96.40
2023-01-29T04:30:06.916Z,96.20
2023-01-29T04:32:51.241Z,96.30
2023-01-29T04:35:30.406Z,96.30
2023-01-29T04:38:08.956Z,96.30
2023-01-29T04:40:45.939Z,96.40
2023-01-29T04:43:21.176Z,96.40
2023-01-29T04:45:57.955Z,96.60
2023-01-29T04:48:31.903Z,96.40
2023-01-29T04:51:08.176Z,96.00
2023-01-29T04:53:43.143Z,96.10
2023-01-29T04:56:20.200Z,96.00
2023-01-29T04:58:53.328Z,96.10
2023-01-29T05:01:25.775Z,96.10
2023-01-29T05:03:57.044Z,96.00
2023-01-29T05:06:26.090Z,96.00
2023-01-29T05:08:55.934Z,95.90
2023-01-29T05:11:25.298Z,95.90
2023-01-29T05:13:53.502Z,95.90
2023-01-29T05:16:25.106Z,95.80
2023-01-29T05:18:57.609Z,95.80
2023-01-29T05:21:26.349Z,95.60
2023-01-29T05:24:12.208Z,95.50
2023-01-29T05:26:57.426Z,95.40
2023-01-29T05:29:25.558Z,95.10
2023-01-29T05:31:53.632Z,95.20
2023-01-29T05:34:23.107Z,95.60
2023-01-29T05:36:51.140Z,95.80
2023-01-29T05:39:19.331Z,95.80
2023-01-29T05:41:47.475Z,95.80
2023-01-29T05:44:15.552Z,95.50
2023-01-29T05:46:43.983Z,95.50
2023-01-29T05:49:12.188Z,95.40
2023-01-29T05:51:41.532Z,95.10
2023-01-29T05:54:09.560Z,94.80
2023-01-29T05:56:37.497Z,95.40
2023-01-29T05:59:05.580Z,95.20
2023-01-29T06:01:33.601Z,95.30
2023-01-29T06:04:01.772Z,95.90
2023-01-29T06:06:29.816Z,96.20
2023-01-29T06:08:59.128Z,95.90
2023-01-29T06:11:27.298Z,95.90
2023-01-29T06:13:55.277Z,95.90
2023-01-29T06:16:23.319Z,96.00
2023-01-29T06:18:51.383Z,95.90
2023-01-29T06:21:20.192Z,95.90
2023-01-29T06:23:48.264Z,96.00
2023-01-29T06:26:17.626Z,96.10
2023-01-29T06:28:46.120Z,96.40
2023-01-29T06:31:38.286Z,96.70
2023-01-29T06:34:02.248Z,96.90
2023-01-29T06:36:30.239Z,96.70
2023-01-29T06:38:58.246Z,96.50
2023-01-29T06:41:29.690Z,96.40
2023-01-29T06:43:57.661Z,96.40
2023-01-29T06:46:25.706Z,96.00
2023-01-29T06:48:53.749Z,96.00
2023-01-29T06:51:23.027Z,96.10
2023-01-29T06:53:54.532Z,96.20
2023-01-29T06:56:22.975Z,96.20
2023-01-29T06:58:52.387Z,96.50
2023-01-29T07:01:34.563Z,96.30
2023-01-29T07:04:03.719Z,96.50
2023-01-29T07:06:32.442Z,96.30
2023-01-29T07:09:00.545Z,96.40
2023-01-29T07:11:28.636Z,96.50
2023-01-29T07:13:58.086Z,96.70
2023-01-29T07:16:26.462Z,96.70
2023-01-29T07:18:54.755Z,96.90
2023-01-29T07:21:23.056Z,97.10
2023-01-29T07:23:51.201Z,97.30
2023-01-29T07:26:19.335Z,97.40
2023-01-29T07:28:47.553Z,97.70
2023-01-29T07:31:17.109Z,97.70
2023-01-29T07:33:45.526Z,97.50
2023-01-29T07:36:14.489Z,97.30
2023-01-29T07:38:42.677Z,97.10
2023-01-29T07:41:12.748Z,97.00
2023-01-29T07:43:40.789Z,97.00
2023-01-29T07:46:09.094Z,97.20
2023-01-29T07:48:38.557Z,97.10
2023-01-29T07:51:09.007Z,97.10
2023-01-29T07:53:37.080Z,96.80
2023-01-29T07:56:05.664Z,97.00
2023-01-29T07:58:35.750Z,96.50
2023-01-29T08:01:07.026Z,96.60
2023-01-29T08:03:35.083Z,96.50
2023-01-29T08:06:04.978Z,96.60
2023-01-29T08:08:33.101Z,96.40
2023-01-29T08:11:02.866Z,96.40
2023-01-29T08:13:30.959Z,96.50
2023-01-29T08:16:01.189Z,96.40
2023-01-29T08:18:29.585Z,96.60
2023-01-29T08:21:01.279Z,96.70
2023-01-29T08:23:31.335Z,96.60
2023-01-29T08:25:59.701Z,96.20
2023-01-29T08:28:27.995Z,96.40
2023-01-29T08:30:56.167Z,96.30
2023-01-29T08:33:38.039Z,96.10
2023-01-29T08:36:09.754Z,96.00
2023-01-29T08:38:39.177Z,95.50
2023-01-29T08:41:07.492Z,95.50
2023-01-29T08:43:37.037Z,95.90
2023-01-29T08:46:06.191Z,95.80
2023-01-29T08:48:34.989Z,95.70
2023-01-29T08:51:04.585Z,95.40
2023-01-29T08:53:33.284Z,95.40
2023-01-29T08:56:02.805Z,95.60
2023-01-29T08:58:30.992Z,95.50
2023-01-29T09:01:06.972Z,95.30
2023-01-29T09:03:35.052Z,95.50
2023-01-29T09:06:03.276Z,95.40
2023-01-29T09:08:31.422Z,95.30
2023-01-29T09:11:00.682Z,95.30
2023-01-29T09:13:30.245Z,95.00
2023-01-29T09:16:01.107Z,94.90
2023-01-29T09:18:29.544Z,95.00
2023-01-29T09:20:57.810Z,95.00
2023-01-29T09:23:26.275Z,94.90
2023-01-29T09:25:54.289Z,94.70
2023-01-29T09:28:22.238Z,94.40
2023-01-29T09:30:52.755Z,94.20
2023-01-29T09:33:20.917Z,94.20
2023-01-29T09:35:48.995Z,94.00
2023-01-29T09:38:17.211Z,94.10
2023-01-29T09:40:54.143Z,94.30
2023-01-29T09:43:25.784Z,94.30
2023-01-29T09:45:59.424Z,94.20
2023-01-29T09:48:31.341Z,93.80
2023-01-29T09:51:01.635Z,93.30
2023-01-29T09:53:36.744Z,93.00
2023-01-29T09:56:07.434Z,91.90
2023-01-29T09:58:38.180Z,91.90
2023-01-29T10:01:16.348Z,91.90
2023-01-29T10:04:16.382Z,91.90
2023-01-29T10:06:56.363Z,92.10
2023-01-29T10:09:57.355Z,92.00
2023-01-29T10:12:47.465Z,91.90
2023-01-29T10:15:24.140Z,91.80
2023-01-29T10:18:06.803Z,91.60
2023-01-29T10:20:54.080Z,91.40
2023-01-29T10:23:28.710Z,91.10
2023-01-29T10:25:56.977Z,91.10
2023-01-29T10:28:29.475Z,91.20
2023-01-29T10:31:03.457Z,91.70
2023-01-29T10:33:49.453Z,91.70
2023-01-29T10:36:33.333Z,91.10
2023-01-29T10:39:01.373Z,90.50
2023-01-29T10:41:54.059Z,90.60
2023-01-29T10:44:32.686Z,90.70
2023-01-29T10:47:30.581Z,90.80
2023-01-29T10:50:19.571Z,90.20
2023-01-29T10:53:04.062Z,90.50
2023-01-29T10:55:42.734Z,90.20
2023-01-29T10:58:21.407Z,90.80
2023-01-29T11:00:49.491Z,90.60
2023-01-29T11:03:27.521Z,90.70
2023-01-29T11:06:03.965Z,89.20
2023-01-29T11:08:37.597Z,88.30
2023-01-29T11:11:09.827Z,88.40
2023-01-29T11:13:42.513Z,88.90
2023-01-29T11:16:11.299Z,88.20
2023-01-29T11:18:58.010Z,87.40
2023-01-29T11:21:28.973Z,87.20
2023-01-29T11:24:08.605Z,86.80
2023-01-29T11:26:40.454Z,88.00
2023-01-29T11:29:34.700Z,86.50
2023-01-29T11:32:05.853Z,86.00
2023-01-29T11:34:34.035Z,86.40
2023-01-29T11:37:05.007Z,86.20
2023-01-29T11:39:34.047Z,85.90
2023-01-29T11:42:03.791Z,85.80
2023-01-29T11:44:33.985Z,86.10
2023-01-29T11:47:13.589Z,85.70
2023-01-29T11:49:46.593Z,85.30
2023-01-29T11:52:18.500Z,85.70
2023-01-29T11:54:50.899Z,85.00
2023-01-29T11:57:27.578Z,85.00
2023-01-29T11:59:59.202Z,85.40
2023-01-29T12:02:33.122Z,85.70
2023-01-29T12:05:05.820Z,84.70
2023-01-29T12:07:35.657Z,84.00
2023-01-29T12:10:03.850Z,83.80
2023-01-29T12:12:35.545Z,83.80
2023-01-29T12:15:26.092Z,85.40
2023-01-29T12:18:03.576Z,84.40
2023-01-29T12:20:38.404Z,85.40
2023-01-29T12:23:18.898Z,87.10
2023-01-29T12:25:57.556Z,87.00
2023-01-29T12:28:45.519Z,86.60
2023-01-29T12:31:23.085Z,86.40
2023-01-29T12:33:55.029Z,86.10
2023-01-29T12:36:27.877Z,85.80
2023-01-29T12:38:59.035Z,86.00
2023-01-29T12:41:34.885Z,86.30
2023-01-29T12:44:08.311Z,85.50
2023-01-29T12:46:40.943Z,85.20
2023-01-29T12:49:17.500Z,85.70
2023-01-29T12:51:55.842Z,86.00
2023-01-29T12:54:32.199Z,85.50
2023-01-29T12:57:04.139Z,85.00
2023-01-29T12:59:37.620Z,85.50
2023-01-29T13:02:19.568Z,84.50
2023-01-29T13:04:55.342Z,83.60
2023-01-29T13:07:29.280Z,83.40
2023-01-29T13:10:05.652Z,83.00
2023-01-29T13:12:36.053Z,82.80
2023-01-29T13:15:07.279Z,82.60
2023-01-29T13:17:38.865Z,82.10
2023-01-29T13:20:14.577Z,82.00
2023-01-29T13:22:45.385Z,81.50
2023-01-29T13:25:17.498Z,81.50
2023-01-29T13:27:47.842Z,81.40
2023-01-29T13:30:33.193Z,81.70
2023-01-29T13:33:11.071Z,82.00
2023-01-29T13:35:43.080Z,81.70
2023-01-29T13:38:25.336Z,81.90
2023-01-29T13:40:57.198Z,81.80
2023-01-29T13:43:25.597Z,81.70
2023-01-29T13:45:55.287Z,81.50
2023-01-29T13:48:27.468Z,81.50
2023-01-29T13:50:57.191Z,82.00
2023-01-29T13:53:28.263Z,82.50
2023-01-29T13:56:30.894Z,82.70
2023-01-29T13:58:59.571Z,82.80
2023-01-29T14:02:02.666Z,82.70
2023-01-29T14:04:33.136Z,83.00
2023-01-29T14:07:03.148Z,83.20
2023-01-29T14:10:06.842Z,83.40
2023-01-29T14:12:47.455Z,83.40
2023-01-29T14:15:27.489Z,83.70
2023-01-29T14:18:16.585Z,83.80
2023-01-29T14:20:55.203Z,83.70
2023-01-29T14:23:30.823Z,83.60
2023-01-29T14:26:01.297Z,83.80
2023-01-29T14:28:34.693Z,84.00
2023-01-29T14:31:04.921Z,84.30
2023-01-29T14:33:37.663Z,84.40
2023-01-29T14:36:08.276Z,84.60
2023-01-29T14:38:37.145Z,84.40
2023-01-29T14:41:24.548Z,84.50
2023-01-29T14:44:32.614Z,84.50
2023-01-29T14:47:02.130Z,84.30
2023-01-29T14:49:52.888Z,84.30
2023-01-29T14:52:24.243Z,84.30
2023-01-29T14:54:54.756Z,85.20
2023-01-29T14:57:24.425Z,85.70
2023-01-29T14:59:59.472Z,86.90
2023-01-29T15:02:37.141Z,88.30
2023-01-29T15:05:09.122Z,89.00
2023-01-29T15:07:41.629Z,89.60
2023-01-29T15:10:22.803Z,90.00
2023-01-29T15:12:58.171Z,90.00
2023-01-29T15:15:34.255Z,90.20
2023-01-29T15:18:09.079Z,90.40
2023-01-29T15:20:38.747Z,90.50
2023-01-29T15:23:27.800Z,90.10
2023-01-29T15:25:58.419Z,89.00
2023-01-29T15:28:27.880Z,88.80
2023-01-29T15:30:59.096Z,89.30
2023-01-29T15:33:29.544Z,89.00
2023-01-29T15:36:07.372Z,89.30
2023-01-29T15:38:36.021Z,90.10
2023-01-29T15:41:05.413Z,90.00
2023-01-29T15:43:37.696Z,90.20
2023-01-29T15:46:08.167Z,90.10
2023-01-29T15:48:42.837Z,90.60
2023-01-29T15:51:17.373Z,90.60
2023-01-29T15:53:49.746Z,90.50
2023-01-29T15:56:22.678Z,90.40
2023-01-29T15:58:54.068Z,90.90
2023-01-29T16:01:23.347Z,91.30
2023-01-29T16:04:01.153Z,91.40
2023-01-29T16:06:31.215Z,91.30
2023-01-29T16:09:01.823Z,91.20
2023-01-29T16:11:30.181Z,91.20
2023-01-29T16:13:58.725Z,91.70
2023-01-29T16:16:29.426Z,92.10
2023-01-29T16:19:01.138Z,92.40
2023-01-29T16:21:35.200Z,92.30
2023-01-29T16:24:09.331Z,91.50
2023-01-29T16:26:40.396Z,91.10
2023-01-29T16:29:10.751Z,91.70
2023-01-29T16:31:40.582Z,92.10
2023-01-29T16:34:15.545Z,91.30
2023-01-29T16:36:47.265Z,91.20
2023-01-29T16:39:20.652Z,91.30
2023-01-29T16:42:21.427Z,91.50
2023-01-29T16:44:53.400Z,91.60
2023-01-29T16:47:29.675Z,91.70
2023-01-29T16:50:02.345Z,91.80
2023-01-29T16:52:33.614Z,92.00
2023-01-29T16:55:17.042Z,92.20
2023-01-29T16:57:49.569Z,92.40
2023-01-29T17:00:23.044Z,92.40
2023-01-29T17:02:53.813Z,92.00
2023-01-29T17:05:27.208Z,93.00
2023-01-29T17:08:01.286Z,93.80
2023-01-29T17:10:31.557Z,94.00
2023-01-29T17:13:03.333Z,93.70
2023-01-29T17:15:35.388Z,93.40
2023-01-29T17:18:03.600Z,93.20
2023-01-29T17:20:33.521Z,93.60
2023-01-29T17:23:01.487Z,94.50
2023-01-29T17:25:30.230Z,94.30
2023-01-29T17:28:01.787Z,93.80
2023-01-29T17:30:34.706Z,93.80
2023-01-29T17:33:03.579Z,93.90
2023-01-29T17:35:32.939Z,94.10
2023-01-29T17:38:00.929Z,94.10
2023-01-29T17:40:36.007Z,94.20
2023-01-29T17:43:04.110Z,95.20
2023-01-29T17:45:33.922Z,95.10
2023-01-29T17:48:02.078Z,94.80
2023-01-29T17:50:35.154Z,94.60
2023-01-29T17:53:03.613Z,94.80
2023-01-29T17:55:31.644Z,95.30
2023-01-29T17:57:59.722Z,95.90
2023-01-29T18:00:27.710Z,95.50
2023-01-29T18:02:55.845Z,95.20
2023-01-29T18:05:23.793Z,95.60
2023-01-29T18:07:54.753Z,96.20
2023-01-29T18:10:23.289Z,96.40
2023-01-29T18:12:51.561Z,96.40
2023-01-29T18:15:19.967Z,95.90
2023-01-29T18:17:48.532Z,95.60
2023-01-29T18:20:23.675Z,95.20
2023-01-29T18:22:53.695Z,94.80
2023-01-29T18:25:23.576Z,94.80
2023-01-29T18:27:52.832Z,95.40
2023-01-29T18:30:21.006Z,95.90
2023-01-29T18:32:52.272Z,95.70
2023-01-29T18:35:20.442Z,95.80
2023-01-29T18:37:48.558Z,95.80
2023-01-29T18:40:18.305Z,95.90
2023-01-29T18:42:46.932Z,96.20
2023-01-29T18:45:16.019Z,95.80
2023-01-29T18:47:44.311Z,95.80
2023-01-29T18:50:13.357Z,95.50
2023-01-29T18:52:41.896Z,95.70
2023-01-29T18:55:10.791Z,95.90
2023-01-29T18:58:27.238Z,95.60
2023-01-29T19:00:28.689Z,95.50
2023-01-29T19:02:56.688Z,95.80
2023-01-29T19:05:25.674Z,96.10
2023-01-29T19:07:53.676Z,96.40
2023-01-29T19:10:21.709Z,96.40
2023-01-29T19:12:51.064Z,96.30
2023-01-29T19:15:21.495Z,96.50
2023-01-29T19:17:49.809Z,96.30
2023-01-29T19:20:18.314Z,96.10
2023-01-29T19:22:46.296Z,96.10
2023-01-29T19:25:14.378Z,96.20
2023-01-29T19:27:42.626Z,96.30
2023-01-29T19:30:13.689Z,95.90
2023-01-29T19:32:42.221Z,96.00
2023-01-29T19:35:10.216Z,96.50
2023-01-29T19:37:38.298Z,96.90
2023-01-29T19:40:08.168Z,97.70
2023-01-29T19:42:37.441Z,97.10
2023-01-29T19:45:06.297Z,96.60
2023-01-29T19:47:39.624Z,96.50
2023-01-29T19:50:08.384Z,96.80
2023-01-29T19:52:50.328Z,97.50
2023-01-29T19:55:20.996Z,97.90
2023-01-29T19:57:49.331Z,98.00
2023-01-29T20:00:18.643Z,97.50
2023-01-29T20:02:48.367Z,97.30
2023-01-29T20:05:18.439Z,97.20
2023-01-29T20:07:46.734Z,96.80
2023-01-29T20:10:17.467Z,97.00
2023-01-29T20:12:46.081Z,97.20
2023-01-29T20:15:14.804Z,97.30
2023-01-29T20:17:45.611Z,97.10
2023-01-29T20:20:16.879Z,97.10
2023-01-29T20:22:45.165Z,97.00
2023-01-29T20:25:13.676Z,97.20
2023-01-29T20:27:42.336Z,97.10
2023-01-29T20:30:11.699Z,97.00
2023-01-29T20:32:39.750Z,97.10
2023-01-29T20:35:09.320Z,97.20
2023-01-29T20:37:38.774Z,97.20
2023-01-29T20:40:07.634Z,97.00
2023-01-29T20:42:35.613Z,96.90
2023-01-29T20:45:05.912Z,97.20
2023-01-29T20:47:34.030Z,97.60
2023-01-29T20:50:08.375Z,97.30
2023-01-29T20:52:38.049Z,97.00
2023-01-29T20:55:09.099Z,97.00
2023-01-29T20:57:38.811Z,97.20
2023-01-29T21:00:11.851Z,97.00
2023-01-29T21:02:40.001Z,96.80
2023-01-29T21:05:08.613Z,97.10
2023-01-29T21:07:38.066Z,97.40
2023-01-29T21:10:06.783Z,97.40
2023-01-29T21:12:34.917Z,97.00
2023-01-29T21:15:03.046Z,96.90
2023-01-29T21:17:31.104Z,96.90
2023-01-29T21:19:59.358Z,97.10
2023-01-29T21:22:27.340Z,97.20
2023-01-29T21:25:01.402Z,97.30
2023-01-29T21:27:29.534Z,97.20
2023-01-29T21:29:57.632Z,97.20
2023-01-29T21:32:27.954Z,97.20
2023-01-29T21:34:58.845Z,97.30
2023-01-29T21:37:26.899Z,97.30
2023-01-29T21:39:56.397Z,97.30
2023-01-29T21:42:41.679Z,97.50
2023-01-29T21:45:10.889Z,97.50
2023-01-29T21:47:38.850Z,97.90
2023-01-29T21:50:07.933Z,98.20
2023-01-29T21:52:36.154Z,98.20
2023-01-29T21:55:06.453Z,98.20
2023-01-29T21:57:34.595Z,98.10
2023-01-29T22:00:03.876Z,98.30
2023-01-29T22:02:32.285Z,98.20
2023-01-29T22:05:17.504Z,97.80
2023-01-29T22:07:46.547Z,97.60
2023-01-29T22:10:17.207Z,97.60
2023-01-29T22:12:45.636Z,97.80
2023-01-29T22:15:14.377Z,98.10
2023-01-29T22:17:42.971Z,97.80
2023-01-29T22:20:13.193Z,97.50
2023-01-29T22:22:41.591Z,97.80
2023-01-29T22:25:10.635Z,97.80
2023-01-29T22:27:40.308Z,97.70
2023-01-29T22:30:09.794Z,97.60
2023-01-29T22:32:37.895Z,97.40
2023-01-29T22:35:09.651Z,97.30
2023-01-29T22:37:37.728Z,97.30
2023-01-29T22:40:06.555Z,97.40
2023-01-29T22:42:34.563Z,97.20
2023-01-29T22:45:03.992Z,97.20
2023-01-29T22:47:33.646Z,97.30
2023-01-29T22:50:01.706Z,97.20
2023-01-29T22:52:38.278Z,97.40
2023-01-29T22:55:08.887Z,97.60
2023-01-29T22:57:39.035Z,98.00
2023-01-29T23:00:11.079Z,98.30
2023-01-29T23:02:39.181Z,98.60
2023-01-29T23:05:08.418Z,98.60
2023-01-29T23:07:36.720Z,98.70
2023-01-29T23:10:05.766Z,98.60
2023-01-29T23:12:34.274Z,98.30
2023-01-29T23:15:02.294Z,98.10
2023-01-29T23:17:31.677Z,98.00
2023-01-29T23:19:59.803Z,97.80
2023-01-29T23:22:27.902Z,97.90
2023-01-29T23:24:56.417Z,98.00
2023-01-29T23:27:23.469Z,98.10
2023-01-29T23:29:51.712Z,98.10
2023-01-29T23:32:22.000Z,98.10
2023-01-29T23:34:51.433Z,98.00
2023-01-29T23:37:19.390Z,97.80
2023-01-29T23:39:47.570Z,98.10
2023-01-29T23:42:15.554Z,98.10
2023-01-29T23:44:43.676Z,98.40
2023-01-29T23:47:11.832Z,98.70
2023-01-29T23:49:39.965Z,98.60
2023-01-29T23:52:09.340Z,98.70
2023-01-29T23:54:37.326Z,98.90
2023-01-29T23:57:05.493Z,98.50
2023-01-29T23:59:33.501Z,98.50
